Time;durP1;ratioP1;P1;durP2;ratioP2;P2;SDS_P1;SDS_P2;PMS_P1;PMS_P2;Temp;Humidity;BMP_temperature;BMP_pressure;BME280_temperature;BME280_humidity;BME280_pressure;Samples;Min_cycle;Max_cycle;Signal;HPM_P1;HPM_P2
2021/01/29 00:04:40;;;;;;;10.50;6.40;;;;;;;-2.92;95.62;98673.91;3364231;88;25720;-73
2021/01/29 00:09:42;;;;;;;11.00;7.87;;;;;;;-3.07;98.32;98666.70;3364003;88;25824;-74
2021/01/29 00:14:43;;;;;;;12.20;7.90;;;;;;;-2.92;98.63;98672.60;3364082;88;25780;-74
2021/01/29 00:19:44;;;;;;;11.63;6.13;;;;;;;-3.11;100.00;98653.30;3363862;87;26274;-74
2021/01/29 00:24:45;;;;;;;11.00;7.27;;;;;;;-3.21;99.80;98652.97;3364128;87;25884;-68
2021/01/29 00:29:46;;;;;;;10.30;6.23;;;;;;;-3.14;99.32;98655.08;3363749;87;25815;-68
2021/01/29 00:34:48;;;;;;;10.30;5.70;;;;;;;-3.30;99.18;98650.47;3363774;88;25776;-73
2021/01/29 00:39:49;;;;;;;7.97;5.10;;;;;;;-3.30;98.39;98651.77;3363656;88;25826;-73
2021/01/29 00:44:50;;;;;;;11.10;6.77;;;;;;;-3.31;98.38;98658.73;3363749;88;25870;-75
2021/01/29 00:49:51;;;;;;;10.30;6.57;;;;;;;-3.27;99.33;98652.59;3363711;88;25992;-73
2021/01/29 00:54:53;;;;;;;6.30;4.80;;;;;;;-3.31;98.34;98652.22;3366911;86;25857;-74
2021/01/29 00:59:54;;;;;;;7.47;4.93;;;;;;;-3.45;98.83;98651.06;3376233;87;25878;-75
2021/01/29 01:04:55;;;;;;;8.50;5.60;;;;;;;-3.43;99.02;98648.02;3375664;88;25824;-74
2021/01/29 01:09:56;;;;;;;9.27;5.97;;;;;;;-3.37;98.87;98643.17;3375955;87;25927;-74
2021/01/29 01:14:58;;;;;;;9.80;5.83;;;;;;;-3.31;99.14;98635.73;3375679;87;26028;-74
2021/01/29 01:19:59;;;;;;;5.53;4.00;;;;;;;-3.22;98.99;98635.19;3376173;88;25819;-74
2021/01/29 01:25:00;;;;;;;11.30;6.87;;;;;;;-3.19;98.94;98642.09;3375934;87;26104;-73
2021/01/29 01:30:04;;;;;;;9.03;6.43;;;;;;;-3.13;99.25;98645.92;3376090;87;32449;-74
2021/01/29 01:35:07;;;;;;;9.07;4.13;;;;;;;-3.05;98.94;98644.09;3376364;88;25840;-72
2021/01/29 01:40:11;;;;;;;11.30;6.33;;;;;;;-3.09;98.62;98650.66;3376116;88;35336;-73
2021/01/29 01:45:33;;;;;;;11.37;6.20;;;;;;;-3.09;100.00;98631.95;3375891;88;35399;-73
2021/01/29 01:50:43;;;;;;;7.50;4.20;;;;;;;-2.83;97.81;98637.28;3377147;87;34754;-73
2021/01/29 01:55:46;;;;;;;11.23;6.57;;;;;;;-3.01;98.79;98651.85;3372038;87;34927;-74
2021/01/29 02:00:47;;;;;;;8.20;5.67;;;;;;;-2.89;98.87;98636.07;3364563;88;34922;-67
2021/01/29 02:05:49;;;;;;;7.17;4.60;;;;;;;-2.89;98.83;98639.98;3363758;87;25758;-74
2021/01/29 02:10:51;;;;;;;7.27;4.53;;;;;;;-3.01;98.32;98644.03;3363554;87;35016;-75
2021/01/29 02:15:58;;;;;;;10.53;6.03;;;;;;;-2.93;98.71;98639.58;3363680;87;35326;-73
2021/01/29 02:21:31;;;;;;;9.30;5.20;;;;;;;-2.95;99.29;98647.86;3364493;87;34905;-74
2021/01/29 02:27:01;;;;;;;8.43;5.00;;;;;;;-2.73;98.42;98656.27;3365078;88;35402;-73
2021/01/29 02:32:41;;;;;;;8.17;5.30;;;;;;;-2.80;99.03;98652.87;3367552;87;34798;-73
2021/01/29 02:38:24;;;;;;;6.47;3.87;;;;;;;-2.82;97.64;98644.20;3369821;84;34800;-73
2021/01/29 02:43:49;;;;;;;6.50;4.13;;;;;;;-2.85;96.78;98657.30;3363801;88;35379;-73
2021/01/29 02:49:09;;;;;;;;;;;;;;;-2.79;96.80;98648.54;3365451;88;25871;-73
2021/01/29 02:54:37;;;;;;;6.93;4.50;;;;;;;-2.83;97.90;98641.20;3363745;87;34904;-73
2021/01/29 02:59:45;;;;;;;6.77;4.70;;;;;;;-2.74;97.75;98643.66;3363980;87;35648;-73
2021/01/29 03:05:20;;;;;;;11.50;5.90;;;;;;;-2.81;98.75;98645.08;3343358;88;35391;-74
2021/01/29 03:10:47;;;;;;;5.87;4.30;;;;;;;-2.79;99.27;98631.59;3363412;87;34928;-74
2021/01/29 03:16:01;;;;;;;10.60;4.53;;;;;;;-2.91;99.06;98625.64;3364259;87;35910;-73
2021/01/29 03:21:08;;;;;;;5.08;3.37;;;;;;;-2.85;100.00;98636.44;3364116;87;25858;-72
2021/01/29 03:26:20;;;;;;;8.47;6.03;;;;;;;-2.83;100.00;98629.88;3363936;87;35336;-74
2021/01/29 03:31:23;;;;;;;8.37;5.20;;;;;;;-2.76;100.00;98624.58;3364051;88;34859;-71
2021/01/29 03:36:29;;;;;;;9.80;5.30;;;;;;;-2.78;100.00;98622.42;3363682;88;34914;-74
2021/01/29 03:41:38;;;;;;;7.20;4.80;;;;;;;-2.87;100.00;98613.42;3363680;88;34936;-74
2021/01/29 03:47:11;;;;;;;5.70;3.93;;;;;;;-2.83;100.00;98605.98;3363516;87;34903;-73
2021/01/29 03:52:47;;;;;;;9.13;5.47;;;;;;;-2.72;100.00;98604.08;3363575;88;34837;-74
2021/01/29 03:58:29;;;;;;;7.40;5.73;;;;;;;-2.75;100.00;98591.06;3363625;87;34872;-73
2021/01/29 04:03:45;;;;;;;8.67;4.80;;;;;;;-2.70;100.00;98622.76;3364150;87;35580;-73
2021/01/29 04:08:57;;;;;;;4.97;3.60;;;;;;;-2.78;100.00;98613.30;3363720;87;25845;-73
2021/01/29 04:14:03;;;;;;;5.67;3.97;;;;;;;-2.72;100.00;98606.69;3346583;88;35420;-73
2021/01/29 04:19:09;;;;;;;6.67;4.05;;;;;;;-2.74;100.00;98620.18;3363904;88;26387;-74
2021/01/29 04:24:21;;;;;;;7.77;4.57;;;;;;;-2.71;100.00;98620.57;3362768;88;34920;-74
2021/01/29 04:29:27;;;;;;;5.43;4.40;;;;;;;-2.63;100.00;98591.78;3363765;88;35013;-73
2021/01/29 04:34:33;;;;;;;8.27;4.13;;;;;;;-2.73;100.00;98619.30;3363665;87;34958;-72
2021/01/29 04:39:45;;;;;;;4.50;2.67;;;;;;;-2.73;100.00;98594.52;3348872;86;36789;-74
2021/01/29 04:45:13;;;;;;;6.70;4.77;;;;;;;-2.77;100.00;98611.11;3349573;87;34860;-67
2021/01/29 04:50:52;;;;;;;7.60;4.60;;;;;;;-2.74;100.00;98598.47;3350534;87;34863;-72
2021/01/29 04:56:19;;;;;;;8.07;4.73;;;;;;;-2.75;100.00;98610.62;3352107;87;34859;-66
2021/01/29 05:01:50;;;;;;;6.27;3.03;;;;;;;-2.69;100.00;98615.36;3348951;87;34487;-72
2021/01/29 05:07:33;;;;;;;6.07;3.97;;;;;;;-2.75;100.00;98608.02;3348527;87;34855;-71
2021/01/29 05:13:02;;;;;;;5.80;4.03;;;;;;;-2.74;100.00;98600.61;3381651;86;33041;-73
2021/01/29 05:18:34;;;;;;;7.70;4.33;;;;;;;-2.69;100.00;98597.09;3431026;86;34968;-72
2021/01/29 05:24:00;;;;;;;5.93;4.07;;;;;;;-2.74;100.00;98604.98;3379913;86;35364;-73
2021/01/29 05:29:45;;;;;;;4.00;2.77;;;;;;;-2.75;100.00;98603.25;3398751;86;34817;-74
2021/01/29 05:34:56;;;;;;;;;;;;;;;-2.75;100.00;98606.71;3401737;85;25785;-72
2021/01/29 05:40:27;;;;;;;5.40;3.77;;;;;;;-2.67;100.00;98610.95;3379692;86;35090;-71
2021/01/29 05:45:56;;;;;;;6.83;4.40;;;;;;;-2.60;100.00;98608.25;3421744;86;33400;-74
2021/01/29 05:51:40;;;;;;;3.80;2.90;;;;;;;-2.51;100.00;98609.84;3445961;86;35680;-74
2021/01/29 05:57:13;;;;;;;5.60;2.90;;;;;;;-2.57;100.00;98622.99;3410159;86;35332;-73
2021/01/29 06:02:26;;;;;;;4.27;3.30;;;;;;;-2.59;100.00;98630.84;3414260;86;34888;-73
2021/01/29 06:07:41;;;;;;;3.33;2.40;;;;;;;-2.58;100.00;98627.78;3369753;86;33756;-68
2021/01/29 06:13:20;;;;;;;5.97;3.58;;;;;;;-2.53;100.00;98650.75;3368953;86;26443;-73
2021/01/29 06:19:08;;;;;;;5.33;2.80;;;;;;;-2.44;100.00;98649.31;3368418;86;34852;-67
2021/01/29 06:24:30;;;;;;;4.13;3.67;;;;;;;-2.45;100.00;98646.73;3369853;86;34812;-73
2021/01/29 06:29:44;;;;;;;4.47;2.60;;;;;;;-2.47;100.00;98644.16;3369832;88;34928;-67
2021/01/29 06:34:59;;;;;;;4.57;2.70;;;;;;;-2.53;100.00;98648.14;3369965;88;35373;-72
2021/01/29 06:40:08;;;;;;;5.10;3.77;;;;;;;-2.51;100.00;98650.29;3370390;88;34930;-72
2021/01/29 06:45:32;;;;;;;4.87;4.07;;;;;;;-2.42;100.00;98640.14;3369615;87;34835;-71
2021/01/29 06:51:01;;;;;;;2.73;2.10;;;;;;;-2.43;100.00;98627.55;3370366;87;34956;-67
2021/01/29 06:56:43;;;;;;;3.17;2.87;;;;;;;-2.51;100.00;98634.63;3369591;86;35041;-73
2021/01/29 07:02:08;;;;;;;5.20;4.00;;;;;;;-2.44;100.00;98636.72;3437188;85;34803;-72
2021/01/29 07:07:20;;;;;;;2.37;2.20;;;;;;;-2.34;100.00;98640.89;3437384;86;25841;-72
2021/01/29 07:12:26;;;;;;;5.30;4.20;;;;;;;-2.42;100.00;98629.28;3436474;85;33077;-73
2021/01/29 07:17:54;;;;;;;5.03;3.77;;;;;;;-2.38;100.00;98629.22;3437725;86;35274;-60
2021/01/29 07:23:10;;;;;;;2.67;2.40;;;;;;;-2.39;100.00;98641.42;3423774;86;34331;-71
2021/01/29 07:28:29;;;;;;;4.23;3.50;;;;;;;-2.47;100.00;98624.59;3437103;86;35282;-72
2021/01/29 07:33:44;;;;;;;5.33;2.67;;;;;;;-2.32;100.00;98621.28;3436702;85;34958;-72
2021/01/29 07:39:15;;;;;;;5.77;3.60;;;;;;;-2.44;100.00;98614.09;3436260;85;35029;-72
2021/01/29 07:44:40;;;;;;;4.20;3.80;;;;;;;-2.41;100.00;98611.44;3436675;85;34994;-73
2021/01/29 07:49:58;;;;;;;4.42;3.83;;;;;;;-2.37;100.00;98621.81;3437786;85;25956;-69
2021/01/29 07:55:26;;;;;;;5.40;4.17;;;;;;;-2.28;100.00;98613.84;3437739;86;34832;-74
2021/01/29 08:00:51;;;;;;;3.67;3.10;;;;;;;-2.25;100.00;98615.96;3439967;85;34871;-73
2021/01/29 08:06:20;;;;;;;6.28;4.80;;;;;;;-2.36;100.00;98615.71;3445898;85;26306;-72
2021/01/29 08:11:22;;;;;;;6.03;4.20;;;;;;;-2.25;100.00;98613.77;3446352;86;34908;-71
2021/01/29 08:17:05;;;;;;;6.40;4.63;;;;;;;-2.23;100.00;98614.63;3446475;84;34855;-72
2021/01/29 08:22:35;;;;;;;7.10;4.30;;;;;;;-2.24;100.00;98614.20;3445801;86;35394;-73
2021/01/29 08:28:30;;;;;;;6.77;4.17;;;;;;;-2.19;99.49;98601.95;3446398;86;34944;-72
2021/01/29 08:34:00;;;;;;;4.00;3.43;;;;;;;-2.15;99.86;98599.69;3446057;84;34930;-74
2021/01/29 08:39:19;;;;;;;3.53;2.90;;;;;;;-2.14;99.76;98588.37;3445156;85;35553;-68
2021/01/29 08:45:03;;;;;;;9.13;5.37;;;;;;;-2.24;99.30;98594.62;3445756;86;34838;-72
2021/01/29 08:50:41;;;;;;;5.28;3.45;;;;;;;-2.09;98.46;98598.28;3446039;85;25764;-73
2021/01/29 08:55:53;;;;;;;5.73;4.47;;;;;;;-2.05;97.80;98593.02;3445834;86;35375;-72
2021/01/29 09:01:10;;;;;;;6.00;4.17;;;;;;;-2.04;98.01;98586.91;3444604;84;34833;-68
2021/01/29 09:06:18;;;;;;;5.17;3.97;;;;;;;-1.94;97.03;98581.92;3445929;85;34903;-73
2021/01/29 09:11:34;;;;;;;4.57;3.30;;;;;;;-1.96;96.73;98590.22;3445895;86;34831;-69
2021/01/29 09:16:38;;;;;;;5.70;3.80;;;;;;;-2.09;97.09;98595.67;3446148;86;31306;-73
2021/01/29 09:22:09;;;;;;;3.30;2.87;;;;;;;-2.07;97.79;98601.31;3445795;84;34839;-72
2021/01/29 09:27:28;;;;;;;4.23;3.60;;;;;;;-2.09;95.68;98598.28;3446097;86;34966;-68
2021/01/29 09:32:47;;;;;;;8.03;4.80;;;;;;;-2.03;95.37;98597.75;3445510;85;34903;-72
2021/01/29 09:37:54;;;;;;;8.00;4.83;;;;;;;-1.99;96.36;98592.91;3446101;86;35287;-72
2021/01/29 09:43:37;;;;;;;4.93;4.30;;;;;;;-1.96;95.53;98600.23;3446112;86;34880;-73
2021/01/29 09:48:41;;;;;;;3.30;3.00;;;;;;;-1.93;95.83;98592.79;3300031;88;35455;-73
2021/01/29 09:53:47;;;;;;;7.47;5.00;;;;;;;-2.04;96.17;98596.05;3415329;84;35308;-72
2021/01/29 09:59:18;;;;;;;5.97;4.53;;;;;;;-1.93;95.82;98599.31;3429818;85;34972;-68
2021/01/29 10:04:33;;;;;;;6.33;4.17;;;;;;;-2.00;95.25;98595.94;3402095;86;34948;-73
2021/01/29 10:09:37;;;;;;;6.50;4.87;;;;;;;-2.02;96.81;98596.86;3401185;86;34908;-73
2021/01/29 10:15:02;;;;;;;5.07;4.50;;;;;;;-1.94;94.46;98593.22;3402025;87;35422;-72
2021/01/29 10:20:09;;;;;;;8.03;5.62;;;;;;;-1.91;95.07;98584.48;3408336;86;26031;-72
2021/01/29 10:25:37;;;;;;;22.50;15.57;;;;;;;-1.80;95.07;98587.75;3401378;86;34886;-71
2021/01/29 10:30:52;;;;;;;4.93;3.30;;;;;;;-1.88;94.95;98594.86;3401076;87;34905;-72
2021/01/29 10:36:08;;;;;;;7.07;5.23;;;;;;;-1.97;94.04;98596.33;3401781;86;34782;-72
2021/01/29 10:41:18;;;;;;;;;;;;;;;-1.87;94.90;98591.37;3406079;87;26012;-69
2021/01/29 10:46:44;;;;;;;4.27;3.50;;;;;;;-1.72;94.69;98595.89;3402045;87;35051;-67
2021/01/29 10:52:19;;;;;;;3.33;2.60;;;;;;;-1.94;93.34;98607.58;3402199;87;34850;-73
2021/01/29 10:57:37;;;;;;;6.97;5.90;;;;;;;-1.89;93.65;98600.97;3402268;86;34867;-68
2021/01/29 11:03:02;;;;;;;7.27;4.57;;;;;;;-1.80;94.62;98600.81;3402293;86;35331;-73
2021/01/29 11:08:21;;;;;;;6.15;5.45;;;;;;;-1.95;94.43;98601.09;3401983;87;25802;-73
2021/01/29 11:14:01;;;;;;;5.93;5.33;;;;;;;-1.91;93.56;98606.69;3389854;85;34982;-72
2021/01/29 11:19:04;;;;;;;6.90;5.23;;;;;;;-1.85;94.91;98602.66;3402338;86;35287;-72
2021/01/29 11:24:25;;;;;;;6.53;3.97;;;;;;;-1.87;93.07;98603.12;3402318;87;35452;-69
2021/01/29 11:29:46;;;;;;;3.80;3.33;;;;;;;-1.98;93.51;98603.77;3402357;87;34964;-73
2021/01/29 11:35:03;;;;;;;7.87;6.27;;;;;;;-1.92;94.76;98603.20;3401928;86;35350;-69
2021/01/29 11:40:44;;;;;;;6.07;4.97;;;;;;;-1.72;94.60;98615.02;3363112;86;35400;-72
2021/01/29 11:45:49;;;;;;;6.97;5.57;;;;;;;-1.83;95.66;98612.61;3401952;86;35339;-73
2021/01/29 11:51:05;;;;;;;8.18;6.65;;;;;;;-1.84;94.39;98619.17;3402594;87;26226;-71
2021/01/29 11:56:37;;;;;;;8.23;5.90;;;;;;;-1.73;94.88;98617.25;3402059;86;35685;-72
2021/01/29 12:02:07;;;;;;;6.47;4.50;;;;;;;-1.75;93.84;98609.88;3402205;85;34864;-72
2021/01/29 12:07:21;;;;;;;5.50;5.00;;;;;;;-1.79;93.32;98609.07;3402213;87;34862;-72
2021/01/29 12:12:28;;;;;;;6.07;4.40;;;;;;;-1.82;94.84;98601.73;3402389;87;34930;-73
2021/01/29 12:17:32;;;;;;;9.27;7.37;;;;;;;-1.79;95.48;98606.45;3402363;87;34981;-68
2021/01/29 12:22:39;;;;;;;5.50;4.90;;;;;;;-1.69;94.32;98606.30;3402647;86;34899;-71
2021/01/29 12:28:15;;;;;;;11.07;6.70;;;;;;;-1.72;93.28;98608.95;3403234;87;34849;-73
2021/01/29 12:33:21;;;;;;;8.03;6.43;;;;;;;-1.64;93.87;98597.91;3404543;85;35293;-72
2021/01/29 12:38:32;;;;;;;8.70;6.57;;;;;;;-1.66;92.74;98587.93;3403178;87;35340;-69
2021/01/29 12:43:57;;;;;;;7.63;5.73;;;;;;;-1.64;93.27;98593.53;3402429;87;35447;-71
2021/01/29 12:49:29;;;;;;;7.78;5.53;;;;;;;-1.62;92.33;98590.88;3402451;87;25838;-72
2021/01/29 12:54:51;;;;;;;8.70;6.70;;;;;;;-1.79;91.91;98603.84;3386902;86;34455;-74
2021/01/29 13:00:00;;;;;;;8.87;7.60;;;;;;;-1.66;91.38;98600.56;3403592;84;34678;-74
2021/01/29 13:05:45;;;;;;;6.27;5.10;;;;;;;-1.63;91.93;98594.41;3439518;85;34842;-72
2021/01/29 13:11:00;;;;;;;6.37;5.30;;;;;;;-1.78;92.72;98589.90;3445726;85;35340;-71
2021/01/29 13:16:19;;;;;;;5.87;3.90;;;;;;;-1.71;91.48;98583.25;3445644;85;35437;-73
2021/01/29 13:21:33;;;;;;;8.03;5.50;;;;;;;-1.70;92.05;98572.76;3446121;86;34856;-73
2021/01/29 13:26:43;;;;;;;6.63;4.93;;;;;;;-1.62;91.52;98568.25;3446028;86;25883;-73
2021/01/29 13:31:45;;;;;;;7.50;4.93;;;;;;;-1.68;91.36;98568.37;3445871;85;34465;-72
2021/01/29 13:37:17;;;;;;;5.57;4.13;;;;;;;-1.75;91.83;98572.00;3445636;84;34861;-73
2021/01/29 13:42:32;;;;;;;7.63;6.47;;;;;;;-1.74;92.83;98559.78;3445910;86;34997;-73
2021/01/29 13:47:40;;;;;;;10.10;7.70;;;;;;;-1.76;92.97;98556.75;3445530;86;34896;-68
2021/01/29 13:52:52;;;;;;;8.83;7.50;;;;;;;-1.62;92.11;98562.14;3438430;85;159822;-73
2021/01/29 13:58:33;;;;;;;7.47;6.40;;;;;;;-1.61;91.94;98561.25;3449467;85;33589;-68
2021/01/29 14:03:51;;;;;;;8.43;6.90;;;;;;;-1.66;91.69;98570.95;3449703;84;35081;-72
2021/01/29 14:08:52;;;;;;;7.87;5.83;;;;;;;-1.69;91.78;98567.95;3449605;85;34998;-73
2021/01/29 14:14:23;;;;;;;8.17;6.80;;;;;;;-1.85;93.40;98562.17;3449861;86;25838;-73
2021/01/29 14:19:45;;;;;;;8.70;7.07;;;;;;;-1.76;92.83;98563.28;3449822;86;34933;-68
2021/01/29 14:25:23;;;;;;;9.73;8.00;;;;;;;-1.64;92.71;98562.19;3444300;84;35603;-72
2021/01/29 14:31:01;;;;;;;13.13;9.97;;;;;;;-1.60;91.83;98564.29;3426999;85;34861;-72
2021/01/29 14:36:14;;;;;;;9.80;8.30;;;;;;;-1.59;91.64;98562.09;3450026;85;35453;-73
2021/01/29 14:41:35;;;;;;;9.97;6.70;;;;;;;-1.78;92.18;98571.61;3448797;84;35365;-71
2021/01/29 14:47:25;;;;;;;10.27;7.80;;;;;;;-1.83;91.38;98576.50;3450027;84;34863;-72
2021/01/29 14:53:06;;;;;;;13.93;9.40;;;;;;;-1.74;91.56;98575.45;3449991;85;33401;-72
2021/01/29 14:58:10;;;;;;;11.50;9.57;;;;;;;-1.67;91.97;98579.67;3450344;85;34879;-72
2021/01/29 15:03:20;;;;;;;18.17;12.10;;;;;;;-1.75;92.38;98582.45;3430065;84;34810;-72
2021/01/29 15:08:33;;;;;;;11.73;8.60;;;;;;;-1.68;93.24;98576.64;3425515;85;35326;-73
2021/01/29 15:13:45;;;;;;;12.90;10.30;;;;;;;-1.72;92.62;98582.83;3426851;86;35294;-73
2021/01/29 15:18:46;;;;;;;16.07;10.67;;;;;;;-1.74;92.36;98580.68;3427190;86;35434;-67
2021/01/29 15:23:56;;;;;;;12.40;9.50;;;;;;;-1.79;92.61;98586.86;3427270;86;25800;-69
2021/01/29 15:29:08;;;;;;;12.80;10.00;;;;;;;-1.68;93.00;98591.01;3425988;86;34853;-68
2021/01/29 15:34:10;;;;;;;16.77;11.67;;;;;;;-1.78;93.47;98589.90;3425619;86;34926;-73
2021/01/29 15:39:26;;;;;;;13.63;10.47;;;;;;;-1.88;93.78;98596.17;3426861;85;34755;-71
2021/01/29 15:44:30;;;;;;;;;;;;;;;-1.79;92.81;98602.97;3429070;86;27904;-73
2021/01/29 15:49:44;;;;;;;17.03;11.83;;;;;;;-1.87;93.76;98598.35;3426856;86;34919;-73
2021/01/29 15:54:56;;;;;;;14.00;10.23;;;;;;;-1.76;93.11;98599.85;3434089;86;34879;-68
2021/01/29 16:00:00;;;;;;;13.30;10.30;;;;;;;-1.81;93.16;98591.25;3425355;85;34943;-74
2021/01/29 16:05:06;;;;;;;16.10;10.77;;;;;;;-1.73;93.63;98595.05;3418957;85;35375;-71
2021/01/29 16:10:13;;;;;;;13.77;9.67;;;;;;;-1.73;93.60;98582.41;3418449;85;34916;-73
2021/01/29 16:15:28;;;;;;;12.37;10.23;;;;;;;-1.72;93.26;98581.06;3419023;86;35326;-68
2021/01/29 16:20:42;;;;;;;15.40;10.35;;;;;;;-1.83;92.94;98574.73;3419550;86;25929;-72
2021/01/29 16:26:01;;;;;;;12.75;9.48;;;;;;;-1.79;93.21;98582.06;3419260;85;25897;-70
2021/01/29 16:31:10;;;;;;;16.63;12.77;;;;;;;-1.84;93.01;98587.41;3418618;85;34935;-67
2021/01/29 16:36:20;;;;;;;16.87;12.63;;;;;;;-1.71;93.14;98583.25;3420519;85;34869;-67
2021/01/29 16:41:30;;;;;;;18.30;13.10;;;;;;;-1.73;93.02;98578.48;3420106;85;34854;-73
2021/01/29 16:46:33;;;;;;;18.23;13.50;;;;;;;-1.80;93.45;98584.30;3418935;85;34825;-72
2021/01/29 16:51:34;;;;;;;19.30;13.87;;;;;;;-1.77;93.73;98578.56;3417878;85;34479;-74
2021/01/29 16:56:36;;;;;;;15.63;11.00;;;;;;;-1.95;95.10;98573.23;3413580;85;26757;-73
2021/01/29 17:01:40;;;;;;;17.90;11.10;;;;;;;-1.98;95.32;98576.34;3417296;85;34909;-73
2021/01/29 17:06:48;;;;;;;15.80;11.73;;;;;;;-2.04;96.71;98567.33;3358221;87;35371;-68
2021/01/29 17:11:51;;;;;;;16.03;12.73;;;;;;;-1.86;96.49;98565.66;3449704;84;35429;-74
2021/01/29 17:16:56;;;;;;;14.20;11.60;;;;;;;-1.80;96.73;98576.45;3475466;84;34962;-73
2021/01/29 17:22:09;;;;;;;13.75;11.22;;;;;;;-1.84;96.87;98570.42;3449878;84;26740;-72
2021/01/29 17:27:15;;;;;;;17.63;13.20;;;;;;;-1.92;96.68;98569.70;3449639;84;34951;-67
2021/01/29 17:32:27;;;;;;;19.67;14.43;;;;;;;-1.99;98.17;98572.86;3449703;84;34864;-68
2021/01/29 17:37:30;;;;;;;20.43;14.73;;;;;;;-2.01;97.93;98573.78;3469122;84;34919;-73
2021/01/29 17:42:43;;;;;;;23.67;15.93;;;;;;;-1.88;96.64;98577.89;3445653;84;34911;-72
2021/01/29 17:47:46;;;;;;;14.13;10.27;;;;;;;-1.88;96.04;98580.95;3450152;84;34959;-72
2021/01/29 17:52:53;;;;;;;13.23;10.93;;;;;;;-1.97;96.33;98575.01;3449292;84;46084;-73
2021/01/29 17:58:20;;;;;;;11.75;10.50;;;;;;;-1.78;96.27;98576.84;3449588;84;25981;-73
2021/01/29 18:03:21;;;;;;;10.27;7.73;;;;;;;-1.78;96.72;98577.27;3466038;84;35341;-68
2021/01/29 18:08:46;;;;;;;10.87;7.60;;;;;;;-1.88;95.79;98570.51;3467753;85;34964;-74
2021/01/29 18:13:53;;;;;;;12.30;9.53;;;;;;;-1.96;96.60;98578.47;3358122;85;41339;-73
2021/01/29 18:18:56;;;;;;;13.13;11.23;;;;;;;-1.97;97.42;98575.01;3348750;87;34982;-73
2021/01/29 18:24:12;;;;;;;11.00;8.97;;;;;;;-2.09;98.28;98577.84;3299151;89;35378;-74
2021/01/29 18:29:14;;;;;;;10.73;8.40;;;;;;;-2.01;97.52;98566.80;3326558;89;34860;-73
2021/01/29 18:34:25;;;;;;;8.03;7.10;;;;;;;-1.93;95.71;98567.98;3390655;87;34885;-72
2021/01/29 18:39:27;;;;;;;5.60;5.10;;;;;;;-1.97;93.29;98561.95;3390534;87;35369;-73
2021/01/29 18:44:28;;;;;;;6.87;6.17;;;;;;;-2.12;89.28;98548.74;3390700;87;25804;-74
2021/01/29 18:49:29;;;;;;;6.30;5.23;;;;;;;-1.98;89.99;98548.93;3390500;87;26263;-73
2021/01/29 18:54:32;;;;;;;8.20;7.40;;;;;;;-2.13;89.83;98546.14;3390438;87;25864;-73
2021/01/29 18:59:33;;;;;;;11.60;8.40;;;;;;;-2.09;90.94;98540.84;3390764;87;34897;-68
2021/01/29 19:04:34;;;;;;;6.90;6.20;;;;;;;-2.17;91.63;98545.33;3388477;86;35133;-74
2021/01/29 19:09:35;;;;;;;7.67;6.20;;;;;;;-2.12;91.61;98554.39;3348743;87;26044;-68
2021/01/29 19:14:36;;;;;;;6.83;6.17;;;;;;;-2.15;90.62;98555.77;3266175;90;25896;-71
2021/01/29 19:19:39;;;;;;;6.53;5.92;;;;;;;-2.03;89.86;98559.45;3327187;89;25839;-73
2021/01/29 19:24:40;;;;;;;8.07;7.23;;;;;;;-2.18;90.93;98560.58;3345804;87;34846;-69
2021/01/29 19:29:42;;;;;;;7.70;6.90;;;;;;;-1.96;89.61;98570.63;3274626;89;26742;-73
2021/01/29 19:34:43;;;;;;;11.87;8.33;;;;;;;-2.17;90.07;98570.59;3321725;89;26674;-73
2021/01/29 19:39:45;;;;;;;9.80;7.70;;;;;;;-2.01;89.08;98565.48;3359729;87;25769;-73
2021/01/29 19:44:47;;;;;;;8.23;7.10;;;;;;;-2.11;90.47;98566.10;3259327;90;34352;-73
2021/01/29 19:49:55;;;;;;;8.60;7.70;;;;;;;-2.15;89.47;98560.53;3326306;89;35621;-74
2021/01/29 19:54:56;;;;;;;8.30;7.07;;;;;;;-2.07;89.05;98553.01;3367651;87;34945;-74
2021/01/29 19:59:57;;;;;;;8.00;6.53;;;;;;;-2.11;89.25;98552.20;3260356;90;25945;-73
2021/01/29 20:04:58;;;;;;;9.07;8.13;;;;;;;-2.09;88.72;98553.05;3350816;87;25745;-73
2021/01/29 20:09:59;;;;;;;12.30;8.53;;;;;;;-2.16;89.99;98552.28;3351802;88;25883;-74
2021/01/29 20:15:01;;;;;;;10.10;8.87;;;;;;;-2.33;89.97;98556.49;3351367;88;25892;-74
2021/01/29 20:20:03;;;;;;;11.80;9.60;;;;;;;-2.20;89.47;98546.70;3351851;88;25872;-73
2021/01/29 20:25:06;;;;;;;11.57;10.37;;;;;;;-2.13;89.58;98537.87;3352130;87;35405;-72
2021/01/29 20:30:13;;;;;;;12.43;10.93;;;;;;;-2.16;90.02;98537.92;3346775;88;35439;-73
2021/01/29 20:35:14;;;;;;;10.70;9.27;;;;;;;-2.00;89.87;98541.10;3349370;88;35308;-74
2021/01/29 20:40:18;;;;;;;10.63;9.53;;;;;;;-1.98;88.71;98535.88;3349103;87;33187;-73
2021/01/29 20:45:22;;;;;;;11.47;9.87;;;;;;;-2.01;88.60;98539.83;3348302;88;35010;-72
2021/01/29 20:50:37;;;;;;;11.30;8.97;;;;;;;-2.23;88.95;98542.84;3347586;88;25886;-72
2021/01/29 20:55:40;;;;;;;11.83;10.43;;;;;;;-2.27;89.65;98547.70;3348951;88;25858;-67
2021/01/29 21:00:43;;;;;;;11.30;9.80;;;;;;;-2.47;91.04;98557.17;3349553;88;34886;-73
2021/01/29 21:05:45;;;;;;;11.13;9.93;;;;;;;-2.47;91.95;98561.96;3327842;87;35370;-74
2021/01/29 21:10:47;;;;;;;13.50;10.93;;;;;;;-2.47;91.43;98567.61;3349937;87;34880;-72
2021/01/29 21:15:48;;;;;;;12.53;10.90;;;;;;;-2.58;92.18;98574.30;3300045;89;35290;-72
2021/01/29 21:20:50;;;;;;;15.20;10.80;;;;;;;-2.62;92.64;98579.16;3343937;87;34893;-72
2021/01/29 21:25:52;;;;;;;16.17;12.83;;;;;;;-2.64;92.83;98579.62;3299405;89;34123;-73
2021/01/29 21:30:53;;;;;;;13.47;11.67;;;;;;;-2.64;92.92;98578.31;3334070;89;35420;-72
2021/01/29 21:35:54;;;;;;;17.43;12.37;;;;;;;-2.69;94.24;98571.86;3300163;88;26278;-72
2021/01/29 21:40:58;;;;;;;18.07;13.80;;;;;;;-2.66;93.59;98568.34;3358577;87;25816;-72
2021/01/29 21:46:00;;;;;;;19.00;13.93;;;;;;;-2.66;94.31;98567.03;3301521;89;34997;-74
2021/01/29 21:51:02;;;;;;;18.33;14.97;;;;;;;-2.73;93.55;98573.66;3335687;87;34896;-72
2021/01/29 21:56:05;;;;;;;22.97;16.13;;;;;;;-2.72;93.12;98574.53;3300907;89;34926;-72
2021/01/29 22:01:10;;;;;;;20.17;13.47;;;;;;;-2.75;93.73;98564.98;3335967;87;34959;-72
2021/01/29 22:06:11;;;;;;;21.57;15.63;;;;;;;-2.85;93.50;98566.02;3314189;88;35332;-72
2021/01/29 22:11:14;;;;;;;14.97;13.37;;;;;;;-2.84;93.43;98572.97;3359783;87;25927;-73
2021/01/29 22:16:16;;;;;;;16.87;14.47;;;;;;;-2.85;94.40;98572.55;3356916;88;34842;-72
2021/01/29 22:21:18;;;;;;;16.73;13.03;;;;;;;-2.80;94.13;98564.66;3359666;87;35010;-73
2021/01/29 22:26:20;;;;;;;17.53;13.87;;;;;;;-2.79;94.16;98559.41;3357131;88;35359;-67
2021/01/29 22:31:21;;;;;;;16.27;14.27;;;;;;;-2.77;94.43;98552.43;3359898;87;35038;-71
2021/01/29 22:36:22;;;;;;;20.57;15.47;;;;;;;-2.76;94.36;98555.46;3357266;88;26312;-72
2021/01/29 22:41:23;;;;;;;20.10;16.53;;;;;;;-2.72;94.43;98557.58;3361036;88;25773;-70
2021/01/29 22:46:26;;;;;;;23.77;17.50;;;;;;;-2.74;94.83;98550.21;3364227;87;25758;-71
2021/01/29 22:51:27;;;;;;;24.27;17.93;;;;;;;-2.69;93.90;98552.75;3360210;88;25822;-71
2021/01/29 22:56:28;;;;;;;25.00;17.83;;;;;;;-2.72;94.87;98546.69;3366185;87;25744;-72
2021/01/29 23:01:29;;;;;;;32.07;21.53;;;;;;;-2.84;95.77;98552.10;3357526;88;26329;-73
2021/01/29 23:06:31;;;;;;;30.63;21.23;;;;;;;-2.82;95.75;98550.31;3337738;87;25815;-72
2021/01/29 23:11:33;;;;;;;32.80;22.53;;;;;;;-2.80;96.46;98552.46;3336734;88;25755;-72
2021/01/29 23:16:35;;;;;;;33.10;22.23;;;;;;;-2.75;96.88;98549.79;3301848;89;34858;-72
2021/01/29 23:21:36;;;;;;;28.17;20.27;;;;;;;-2.77;96.62;98548.94;3336572;88;34926;-71
2021/01/29 23:26:37;;;;;;;32.13;21.07;;;;;;;-2.74;96.39;98532.80;3302062;89;25889;-73
2021/01/29 23:31:40;;;;;;;31.47;20.43;;;;;;;-2.73;95.93;98533.68;3336679;87;25931;-72
2021/01/29 23:36:41;;;;;;;28.87;19.20;;;;;;;-2.64;95.77;98532.66;3302155;89;35373;-72
2021/01/29 23:41:42;;;;;;;35.57;21.90;;;;;;;-2.71;96.76;98530.58;3336857;89;25801;-72
2021/01/29 23:46:53;;;;;;;30.13;21.20;;;;;;;-2.71;96.30;98539.71;3302699;89;25849;-71
2021/01/29 23:51:57;;;;;;;28.87;20.37;;;;;;;-2.69;96.00;98547.08;3336958;89;35647;-70
2021/01/29 23:56:58;;;;;;;28.47;19.73;;;;;;;-2.72;95.94;98542.78;3301878;89;35485;-67
